createdAt,value
2024-03-09T00:01:13.999Z,60.85
2024-03-09T00:04:06.405Z,61.06
2024-03-09T00:06:59.993Z,60.83
2024-03-09T00:09:52.230Z,61.46
2024-03-09T00:12:45.392Z,60.59
2024-03-09T00:15:37.582Z,60.66
2024-03-09T00:18:37.177Z,60.65
2024-03-09T00:21:36.714Z,60.55
2024-03-09T00:24:29.591Z,61.15
2024-03-09T00:27:28.289Z,60.73
2024-03-09T00:30:21.161Z,60.56
2024-03-09T00:33:13.130Z,60.91
2024-03-09T00:36:05.596Z,60.39
2024-03-09T00:38:58.212Z,60.73
2024-03-09T00:41:50.300Z,60.30
2024-03-09T00:44:45.263Z,60.75
2024-03-09T00:47:38.996Z,61.21
2024-03-09T00:50:32.305Z,60.65
2024-03-09T00:53:24.274Z,61.93
2024-03-09T00:56:16.851Z,61.22
2024-03-09T00:59:10.690Z,61.50
2024-03-09T01:02:03.653Z,60.93
2024-03-09T01:04:56.340Z,61.59
2024-03-09T01:07:48.837Z,61.00
2024-03-09T01:10:42.028Z,61.74
2024-03-09T01:13:34.693Z,62.01
2024-03-09T01:16:27.416Z,61.78
2024-03-09T01:19:20.570Z,61.37
2024-03-09T01:22:14.418Z,61.63
2024-03-09T01:25:07.917Z,60.67
2024-03-09T01:28:00.564Z,60.35
2024-03-09T01:30:52.326Z,61.22
2024-03-09T01:33:45.961Z,59.95
2024-03-09T01:36:38.637Z,60.07
2024-03-09T01:39:31.587Z,60.38
2024-03-09T01:42:24.687Z,60.78
2024-03-09T01:45:17.489Z,61.38
2024-03-09T01:48:13.026Z,61.49
2024-03-09T01:51:06.094Z,60.90
2024-03-09T01:53:59.083Z,61.30
2024-03-09T01:56:57.075Z,59.99
2024-03-09T01:59:56.559Z,59.77
2024-03-09T02:02:51.507Z,60.13
2024-03-09T02:05:46.857Z,60.11
2024-03-09T02:08:40.981Z,59.98
2024-03-09T02:11:33.597Z,60.39
2024-03-09T02:14:25.746Z,60.23
2024-03-09T02:17:18.439Z,61.02
2024-03-09T02:20:12.631Z,60.74
2024-03-09T02:23:10.144Z,60.25
2024-03-09T02:26:07.156Z,60.79
2024-03-09T02:28:59.579Z,60.29
2024-03-09T02:31:56.901Z,61.06
2024-03-09T02:34:50.047Z,61.18
2024-03-09T02:37:42.530Z,62.08
2024-03-09T02:40:34.372Z,61.59
2024-03-09T02:43:27.185Z,61.08
2024-03-09T02:46:22.656Z,61.81
2024-03-09T02:49:14.683Z,62.52
2024-03-09T02:52:06.824Z,61.57
2024-03-09T02:54:59.545Z,61.84
2024-03-09T02:57:54.756Z,61.55
2024-03-09T03:00:48.575Z,61.21
2024-03-09T03:03:47.751Z,61.76
2024-03-09T03:06:40.019Z,61.64
2024-03-09T03:09:33.377Z,61.47
2024-03-09T03:12:27.470Z,62.37
2024-03-09T03:15:21.022Z,61.85
2024-03-09T03:18:14.112Z,61.82
2024-03-09T03:21:06.816Z,62.62
2024-03-09T03:23:59.686Z,62.53
2024-03-09T03:26:51.693Z,62.32
2024-03-09T03:29:43.701Z,62.71
2024-03-09T03:32:35.571Z,62.06
2024-03-09T03:35:27.917Z,61.57
2024-03-09T03:38:20.854Z,61.92
2024-03-09T03:41:15.575Z,61.41
2024-03-09T03:44:07.642Z,63.06
2024-03-09T03:46:59.622Z,61.96
2024-03-09T03:49:51.859Z,62.23
2024-03-09T03:52:44.628Z,62.21
2024-03-09T03:55:38.583Z,61.96
2024-03-09T03:58:31.057Z,61.72
2024-03-09T04:01:24.883Z,61.85
2024-03-09T04:04:17.773Z,62.25
2024-03-09T04:07:10.816Z,61.67
2024-03-09T04:10:13.322Z,62.23
2024-03-09T04:13:06.641Z,62.19
2024-03-09T04:15:59.692Z,62.08
2024-03-09T04:18:52.258Z,62.72
2024-03-09T04:21:44.903Z,62.87
2024-03-09T04:24:36.692Z,62.52
2024-03-09T04:27:33.974Z,62.40
2024-03-09T04:30:27.224Z,62.05
2024-03-09T04:33:22.845Z,62.55
2024-03-09T04:36:14.584Z,62.48
2024-03-09T04:39:10.910Z,62.72
2024-03-09T04:42:02.793Z,63.26
2024-03-09T04:44:54.928Z,62.98
2024-03-09T04:47:47.788Z,63.20
2024-03-09T04:50:41.863Z,63.05
2024-03-09T04:53:34.763Z,62.86
2024-03-09T04:56:26.813Z,62.19
2024-03-09T04:59:19.249Z,62.64
2024-03-09T05:02:12.358Z,62.72
2024-03-09T05:05:06.163Z,62.28
2024-03-09T05:07:58.981Z,62.35
2024-03-09T05:10:50.810Z,61.85
2024-03-09T05:13:43.368Z,61.17
2024-03-09T05:16:35.729Z,61.89
2024-03-09T05:19:28.204Z,61.63
2024-03-09T05:22:20.888Z,61.46
2024-03-09T05:25:13.826Z,61.17
2024-03-09T05:28:06.244Z,61.63
2024-03-09T05:31:00.894Z,61.26
2024-03-09T05:33:53.181Z,61.93
2024-03-09T05:36:46.008Z,61.06
2024-03-09T05:39:38.031Z,61.63
2024-03-09T05:42:29.900Z,61.63
2024-03-09T05:45:22.614Z,60.89
2024-03-09T05:48:15.049Z,61.39
2024-03-09T05:51:11.108Z,61.28
2024-03-09T05:54:03.866Z,61.47
2024-03-09T05:56:56.067Z,60.98
2024-03-09T05:59:47.913Z,61.11
2024-03-09T06:02:44.889Z,61.56
2024-03-09T06:05:39.174Z,61.69
2024-03-09T06:08:34.730Z,61.42
2024-03-09T06:11:26.950Z,61.66
2024-03-09T06:14:21.938Z,61.13
2024-03-09T06:17:15.867Z,61.65
2024-03-09T06:20:08.376Z,61.42
2024-03-09T06:23:01.732Z,61.74
2024-03-09T06:25:54.910Z,61.56
2024-03-09T06:28:47.612Z,62.17
2024-03-09T06:31:39.884Z,61.89
2024-03-09T06:34:32.212Z,61.42
2024-03-09T06:37:24.951Z,61.53
2024-03-09T06:40:19.438Z,61.46
2024-03-09T06:43:14.198Z,61.17
2024-03-09T06:46:09.788Z,61.81
2024-03-09T06:49:06.259Z,62.03
2024-03-09T06:51:59.653Z,62.19
2024-03-09T06:54:54.521Z,62.13
2024-03-09T06:57:50.068Z,62.45
2024-03-09T07:00:42.578Z,61.94
2024-03-09T07:03:36.428Z,62.74
2024-03-09T07:06:28.967Z,62.32
2024-03-09T07:09:21.593Z,62.39
2024-03-09T07:12:14.474Z,62.07
2024-03-09T07:15:16.413Z,61.54
2024-03-09T07:18:12.448Z,62.20
2024-03-09T07:21:06.499Z,61.77
2024-03-09T07:24:00.077Z,62.19
2024-03-09T07:26:52.212Z,62.80
2024-03-09T07:29:51.076Z,62.33
2024-03-09T07:32:44.504Z,61.89
2024-03-09T07:35:37.422Z,62.61
2024-03-09T07:38:30.336Z,61.49
2024-03-09T07:41:23.875Z,61.43
2024-03-09T07:44:16.420Z,61.80
2024-03-09T07:47:09.777Z,64.47
2024-03-09T07:50:03.350Z,66.38
2024-03-09T07:52:58.761Z,66.29
2024-03-09T07:55:51.441Z,66.82
2024-03-09T07:58:44.311Z,66.40
2024-03-09T08:01:39.812Z,67.55
2024-03-09T08:04:32.393Z,67.16
2024-03-09T08:07:25.092Z,65.54
2024-03-09T08:10:22.608Z,65.04
2024-03-09T08:13:15.984Z,65.52
2024-03-09T08:16:08.594Z,64.91
2024-03-09T08:19:01.439Z,66.04
2024-03-09T08:21:54.371Z,65.62
2024-03-09T08:24:46.307Z,65.38
2024-03-09T08:27:42.495Z,66.16
2024-03-09T08:30:35.335Z,65.51
2024-03-09T08:33:27.483Z,66.57
2024-03-09T08:36:24.004Z,66.40
2024-03-09T08:39:16.286Z,66.27
2024-03-09T08:42:08.336Z,67.00
2024-03-09T08:45:00.549Z,66.81
2024-03-09T08:47:54.939Z,67.75
2024-03-09T08:50:47.398Z,67.56
2024-03-09T08:53:40.091Z,67.85
2024-03-09T08:56:32.947Z,67.12
2024-03-09T08:59:25.516Z,66.16
2024-03-09T09:02:19.787Z,65.20
2024-03-09T09:05:15.796Z,64.90
2024-03-09T09:08:08.566Z,65.55
2024-03-09T09:11:01.410Z,64.57
2024-03-09T09:13:53.655Z,64.32
2024-03-09T09:16:48.208Z,64.14
2024-03-09T09:19:41.224Z,64.23
2024-03-09T09:22:33.586Z,64.79
2024-03-09T09:25:30.941Z,64.92
2024-03-09T09:28:25.523Z,65.28
2024-03-09T09:31:17.296Z,66.00
2024-03-09T09:34:11.972Z,65.68
2024-03-09T09:37:04.714Z,66.36
2024-03-09T09:39:57.409Z,65.15
2024-03-09T09:42:50.050Z,66.10
2024-03-09T09:45:46.290Z,65.29
2024-03-09T09:48:39.100Z,65.44
2024-03-09T09:51:32.334Z,66.24
2024-03-09T09:54:28.153Z,66.61
2024-03-09T09:57:21.769Z,66.52
2024-03-09T10:00:15.736Z,66.63
2024-03-09T10:03:08.833Z,66.64
2024-03-09T10:06:01.691Z,67.39
2024-03-09T10:08:54.991Z,66.93
2024-03-09T10:11:47.704Z,66.84
2024-03-09T10:14:42.774Z,67.11
2024-03-09T10:17:36.029Z,66.69
2024-03-09T10:20:31.165Z,66.73
2024-03-09T10:23:23.314Z,68.31
2024-03-09T10:26:15.587Z,68.18
2024-03-09T10:29:08.597Z,68.39
2024-03-09T10:32:02.505Z,67.67
2024-03-09T10:34:54.709Z,67.79
2024-03-09T10:37:57.423Z,67.71
2024-03-09T10:40:52.733Z,68.12
2024-03-09T10:43:45.983Z,68.87
2024-03-09T10:46:43.344Z,67.18
2024-03-09T10:49:35.886Z,66.78
2024-03-09T10:52:29.592Z,67.24
2024-03-09T10:55:33.436Z,67.94
2024-03-09T10:58:27.230Z,67.83
2024-03-09T11:01:23.330Z,67.21
2024-03-09T11:04:17.705Z,67.24
2024-03-09T11:07:09.987Z,66.88
2024-03-09T11:10:07.008Z,66.66
2024-03-09T11:12:59.949Z,66.41
2024-03-09T11:15:56.596Z,66.62
2024-03-09T11:18:58.958Z,66.11
2024-03-09T11:21:53.384Z,65.47
2024-03-09T11:24:46.863Z,65.54
2024-03-09T11:27:42.795Z,65.80
2024-03-09T11:30:35.852Z,65.60
2024-03-09T11:33:32.153Z,65.27
2024-03-09T11:36:53.903Z,64.78
2024-03-09T11:39:48.844Z,64.20
2024-03-09T11:42:43.181Z,63.57
2024-03-09T11:45:36.563Z,63.44
2024-03-09T11:48:28.577Z,63.15
2024-03-09T11:51:24.180Z,63.11
2024-03-09T11:54:18.209Z,62.39
2024-03-09T11:57:10.825Z,62.84
2024-03-09T12:00:08.168Z,62.59
2024-03-09T12:03:01.204Z,62.76
2024-03-09T12:05:56.401Z,62.55
2024-03-09T12:08:52.585Z,62.69
2024-03-09T12:11:48.022Z,62.37
2024-03-09T12:14:42.992Z,62.56
2024-03-09T12:17:36.283Z,62.77
2024-03-09T12:20:29.540Z,62.51
2024-03-09T12:23:22.021Z,62.73
2024-03-09T12:26:15.139Z,61.99
2024-03-09T12:29:12.007Z,61.97
2024-03-09T12:32:06.275Z,61.62
2024-03-09T12:35:01.254Z,61.01
2024-03-09T12:37:53.998Z,60.48
2024-03-09T12:40:46.934Z,61.43
2024-03-09T12:43:40.192Z,59.61
2024-03-09T12:46:36.260Z,60.61
2024-03-09T12:49:28.734Z,59.82
2024-03-09T12:52:22.666Z,59.59
2024-03-09T12:55:26.078Z,59.34
2024-03-09T12:58:20.314Z,59.17
2024-03-09T13:01:12.860Z,59.43
2024-03-09T13:04:10.524Z,59.32
2024-03-09T13:07:02.923Z,58.66
2024-03-09T13:09:54.992Z,57.93
2024-03-09T13:12:50.180Z,57.56
2024-03-09T13:15:45.722Z,58.40
2024-03-09T13:18:37.737Z,57.24
2024-03-09T13:21:29.766Z,58.42
2024-03-09T13:24:25.979Z,57.07
2024-03-09T13:27:18.160Z,57.87
2024-03-09T13:30:18.242Z,57.82
2024-03-09T13:33:10.925Z,57.41
2024-03-09T13:36:03.221Z,57.61
2024-03-09T13:38:55.565Z,54.69
2024-03-09T13:41:47.966Z,56.30
2024-03-09T13:44:39.882Z,56.72
2024-03-09T13:47:35.471Z,54.63
2024-03-09T13:50:29.652Z,53.81
2024-03-09T13:53:22.420Z,53.17
2024-03-09T13:56:18.104Z,52.54
2024-03-09T13:59:15.062Z,51.91
2024-03-09T14:02:09.983Z,51.83
2024-03-09T14:05:02.280Z,51.43
2024-03-09T14:08:00.195Z,51.23
2024-03-09T14:10:58.619Z,50.75
2024-03-09T14:13:51.389Z,49.96
2024-03-09T14:16:44.031Z,49.91
2024-03-09T14:19:40.033Z,49.04
2024-03-09T14:22:35.042Z,49.72
2024-03-09T14:25:31.068Z,49.24
2024-03-09T14:28:23.942Z,49.35
2024-03-09T14:31:18.776Z,48.46
2024-03-09T14:34:11.164Z,48.20
2024-03-09T14:37:03.624Z,44.58
2024-03-09T14:39:56.075Z,47.85
2024-03-09T14:42:49.070Z,47.33
2024-03-09T14:45:41.148Z,47.38
2024-03-09T14:48:33.569Z,47.13
2024-03-09T14:51:30.598Z,47.06
2024-03-09T14:54:24.234Z,47.12
2024-03-09T14:57:16.080Z,46.69
2024-03-09T15:00:16.242Z,46.13
2024-03-09T15:03:15.273Z,46.82
2024-03-09T15:06:12.108Z,46.57
2024-03-09T15:09:09.869Z,46.28
2024-03-09T15:12:02.324Z,45.92
2024-03-09T15:14:55.337Z,46.32
2024-03-09T15:17:49.396Z,45.96
2024-03-09T15:20:42.836Z,45.63
2024-03-09T15:23:37.489Z,45.99
2024-03-09T15:26:32.296Z,45.23
2024-03-09T15:29:25.602Z,45.40
2024-03-09T15:32:18.644Z,45.70
2024-03-09T15:35:11.141Z,45.63
2024-03-09T15:38:04.602Z,45.63
2024-03-09T15:40:57.639Z,44.53
2024-03-09T15:43:51.129Z,45.84
2024-03-09T15:46:43.860Z,45.58
2024-03-09T15:49:36.106Z,45.50
2024-03-09T15:52:28.221Z,45.20
2024-03-09T15:55:25.269Z,45.86
2024-03-09T15:58:18.307Z,45.64
2024-03-09T16:01:17.083Z,45.84
2024-03-09T16:04:11.480Z,46.15
2024-03-09T16:07:04.912Z,46.48
2024-03-09T16:09:57.178Z,45.40
2024-03-09T16:12:57.652Z,45.80
2024-03-09T16:15:50.434Z,46.46
2024-03-09T16:18:44.003Z,46.18
2024-03-09T16:21:38.694Z,46.02
2024-03-09T16:24:31.241Z,46.84
2024-03-09T16:27:26.791Z,47.00
2024-03-09T16:30:31.755Z,47.21
2024-03-09T16:33:24.498Z,47.48
2024-03-09T16:36:17.206Z,47.64
2024-03-09T16:39:18.949Z,47.81
2024-03-09T16:42:15.530Z,48.50
2024-03-09T16:45:10.958Z,48.69
2024-03-09T16:48:07.302Z,49.13
2024-03-09T16:51:02.362Z,49.37
2024-03-09T16:53:55.181Z,49.48
2024-03-09T16:56:47.352Z,49.99
2024-03-09T16:59:39.496Z,50.29
2024-03-09T17:02:31.146Z,50.29
2024-03-09T17:05:32.238Z,50.67
2024-03-09T17:08:24.710Z,51.00
2024-03-09T17:11:18.967Z,51.29
2024-03-09T17:14:19.147Z,51.89
2024-03-09T17:17:11.339Z,51.63
2024-03-09T17:20:10.484Z,52.21
2024-03-09T17:23:06.418Z,52.14
2024-03-09T17:25:59.489Z,51.84
2024-03-09T17:28:52.665Z,52.29
2024-03-09T17:31:51.172Z,52.43
2024-03-09T17:34:43.566Z,52.72
2024-03-09T17:37:35.410Z,52.90
2024-03-09T17:40:28.226Z,54.01
2024-03-09T17:43:20.464Z,53.81
2024-03-09T17:46:12.350Z,53.95
2024-03-09T17:49:04.710Z,53.69
2024-03-09T17:51:59.528Z,54.51
2024-03-09T17:54:54.417Z,54.20
2024-03-09T17:57:51.218Z,54.61
2024-03-09T18:00:43.549Z,55.21
2024-03-09T18:03:35.596Z,55.28
2024-03-09T18:06:28.079Z,56.11
2024-03-09T18:09:22.814Z,56.26
2024-03-09T18:12:17.862Z,56.43
2024-03-09T18:15:11.685Z,56.23
2024-03-09T18:18:06.444Z,56.58
2024-03-09T18:21:01.647Z,56.60
2024-03-09T18:23:54.930Z,56.83
2024-03-09T18:26:48.052Z,56.99
2024-03-09T18:29:41.180Z,57.66
2024-03-09T18:32:33.694Z,57.37
2024-03-09T18:35:26.756Z,57.47
2024-03-09T18:38:20.036Z,57.57
2024-03-09T18:41:13.107Z,58.08
2024-03-09T18:44:05.638Z,58.56
2024-03-09T18:46:59.341Z,57.98
2024-03-09T18:49:51.535Z,58.21
2024-03-09T18:52:43.919Z,58.65
2024-03-09T18:55:36.573Z,58.70
2024-03-09T18:58:28.595Z,58.85
2024-03-09T19:01:20.470Z,58.48
2024-03-09T19:04:12.550Z,58.73
2024-03-09T19:07:05.136Z,58.93
2024-03-09T19:09:57.735Z,59.95
2024-03-09T19:12:49.918Z,59.41
2024-03-09T19:15:43.291Z,59.39
2024-03-09T19:18:37.305Z,60.13
2024-03-09T19:21:29.871Z,59.86
2024-03-09T19:24:22.575Z,60.80
2024-03-09T19:27:14.739Z,60.40
2024-03-09T19:30:10.117Z,60.09
2024-03-09T19:33:03.154Z,61.16
2024-03-09T19:35:58.157Z,60.34
2024-03-09T19:38:54.836Z,60.40
2024-03-09T19:41:46.594Z,60.70
2024-03-09T19:44:44.658Z,61.18
2024-03-09T19:47:37.119Z,61.64
2024-03-09T19:50:33.268Z,61.60
2024-03-09T19:53:25.894Z,60.68
2024-03-09T19:56:19.342Z,61.14
2024-03-09T19:59:11.776Z,61.71
2024-03-09T20:02:04.307Z,61.36
2024-03-09T20:04:56.752Z,61.57
2024-03-09T20:07:57.451Z,62.39
2024-03-09T20:10:49.788Z,61.35
2024-03-09T20:13:41.809Z,61.59
2024-03-09T20:16:33.858Z,61.43
2024-03-09T20:19:26.595Z,61.85
2024-03-09T20:22:18.625Z,62.83
2024-03-09T20:25:13.931Z,61.28
2024-03-09T20:28:07.817Z,62.10
2024-03-09T20:31:01.261Z,61.92
2024-03-09T20:33:54.154Z,61.62
2024-03-09T20:36:47.171Z,61.76
2024-03-09T20:39:40.109Z,62.00
2024-03-09T20:42:32.971Z,62.32
2024-03-09T20:45:24.881Z,62.31
2024-03-09T20:48:16.961Z,62.97
2024-03-09T20:51:10.991Z,63.37
2024-03-09T20:54:04.317Z,64.16
2024-03-09T20:56:58.090Z,63.99
2024-03-09T20:59:51.980Z,63.64
2024-03-09T21:02:44.254Z,63.24
2024-03-09T21:05:38.569Z,63.53
2024-03-09T21:08:31.101Z,63.58
2024-03-09T21:11:23.818Z,63.83
2024-03-09T21:14:16.076Z,63.79
2024-03-09T21:17:09.311Z,63.73
2024-03-09T21:20:05.599Z,63.76
2024-03-09T21:22:57.819Z,63.26
2024-03-09T21:25:49.973Z,64.12
2024-03-09T21:28:43.400Z,63.98
2024-03-09T21:31:36.294Z,64.81
2024-03-09T21:34:28.775Z,63.70
2024-03-09T21:37:22.113Z,63.70
2024-03-09T21:40:15.041Z,64.10
2024-03-09T21:43:08.009Z,63.86
2024-03-09T21:46:00.684Z,64.54
2024-03-09T21:48:53.635Z,63.90
2024-03-09T21:51:45.958Z,63.67
2024-03-09T21:54:39.878Z,63.89
2024-03-09T21:57:32.357Z,63.79
2024-03-09T22:00:25.949Z,64.36
2024-03-09T22:03:18.135Z,63.64
2024-03-09T22:06:10.713Z,63.77
2024-03-09T22:09:03.128Z,63.85
2024-03-09T22:11:55.139Z,64.06
2024-03-09T22:14:48.176Z,64.21
2024-03-09T22:17:40.896Z,64.07
2024-03-09T22:20:33.353Z,63.83
2024-03-09T22:23:26.934Z,64.02
2024-03-09T22:26:19.665Z,63.86
2024-03-09T22:29:15.077Z,64.04
2024-03-09T22:32:07.406Z,63.98
2024-03-09T22:35:00.331Z,63.61
2024-03-09T22:37:55.926Z,63.83
2024-03-09T22:40:49.219Z,63.40
2024-03-09T22:43:42.334Z,63.76
2024-03-09T22:46:36.891Z,64.13
2024-03-09T22:49:28.980Z,63.23
2024-03-09T22:52:22.314Z,63.36
2024-03-09T22:55:16.338Z,63.37
2024-03-09T22:58:09.116Z,63.28
2024-03-09T23:01:16.734Z,63.29
2024-03-09T23:04:09.828Z,63.27
2024-03-09T23:07:02.448Z,63.10
2024-03-09T23:09:55.285Z,63.31
2024-03-09T23:12:51.489Z,62.92
2024-03-09T23:15:44.642Z,62.86
2024-03-09T23:18:37.641Z,63.57
2024-03-09T23:21:30.140Z,62.98
2024-03-09T23:24:22.133Z,62.88
2024-03-09T23:27:14.235Z,63.67
2024-03-09T23:30:13.283Z,63.31
2024-03-09T23:33:07.965Z,63.71
2024-03-09T23:36:00.504Z,63.38
2024-03-09T23:38:53.173Z,62.95
2024-03-09T23:41:45.547Z,64.00
2024-03-09T23:44:38.191Z,63.77
2024-03-09T23:47:30.030Z,64.22
2024-03-09T23:50:23.271Z,64.05
2024-03-09T23:53:15.746Z,64.35
2024-03-09T23:56:08.753Z,63.81
2024-03-09T23:59:02.186Z,63.81
